Aviation Digital Data Service (ADDS)

Output produced by METARs form (0018 UTC 26 October 2014)
found at http://aviationweather.gov/adds/metars/
 
KGON 252337Z 2600/2624 23008KT P6SM SCT050 
     FM260500 26008KT P6SM BKN050 
     FM260900 29010G16KT P6SM SCT050 
     FM261500 30016G28KT P6SM SCT050 
     FM262200 30014G22KT P6SM FEW050